Impacts TAF Board
For situational awareness. Not to be used for flight planning purposes.
IDs:

KGRK - Killeen-Ft Hood Rgnl, TX, US

Issued at 0800 UTC 26 Jan 2020
Updated at 0849 UTC 26 Jan 2020
Potential Impact None Slight Moderate High
Time<<26/21Z 26/22Z 26/23Z 27/00Z 27/01Z 27/02Z 27/03Z 27/04Z 27/05Z 27/06Z 27/07Z 27/08Z 27/09Z>>
Type PRVL PRVL PRVL PRVL PRVL PRVL PRVL PRVL PRVL PRVL PRVL PRVL PRVL
VIS >6 >6 >6 >6 >6 >6 >6 >6 >6 >6 >6 >6 >6
CIG -- -- -- -- -- -- -- -- -- -- -- -- --
Cover SKC SKC SKC SKC SKC SKC SKC SKC SKC SKC SKC SKC SKC
FltCat VFR VFR VFR VFR VFR VFR VFR VFR VFR VFR VFR VFR VFR
WX NSW NSW NSW NSW NSW NSW NSW NSW NSW NSW NSW NSW NSW
WDir 10 10 10 10 10 10 10 10 10 10 10 10 10
WSpd 9 9 9 9 9 9 9 9 9 9 9 9 9
WGst -- -- -- -- -- -- -- -- -- -- -- -- --
Raw TAF
TAF KGRK 260800Z 2608/2714 19009KT 6000 BR OVC005 QNH2998INS
  TEMPO 2608/2611 2400 BR OVC002
  BECMG 2614/2615 32009KT 9999 NSW SCT010 QNH3000INS
  BECMG 2617/2618 01009KT 9999 SKC QNH3003INS
  BECMG 2712/2713 01006KT 9999 SCT030 QNH3006INS TX18/2621Z TN11/2612Z


METAR Board
For situational awareness. Not to be used for flight planning purposes.